Date,TemperatureHighF,TemperatureAvgF,TemperatureLowF,DewpointHighF,DewpointAvgF,DewpointLowF,HumidityHigh,HumidityAvg,HumidityLow,PressureMaxIn,PressureMinIn,WindSpeedMaxMPH,WindSpeedAvgMPH,GustSpeedMaxMPH,PrecipitationSumIn
2013-3-1,37.0,29.8,26.6,15.9,11.9,8.1,56,47,37,29.30,29.18,11,3,11,0.00
2013-3-2,46.0,32.2,23.0,14.9,10.6,6.7,52,41,28,29.33,29.12,7,1,8,0.00
2013-3-3,51.6,38.1,27.0,21.8,17.3,12.1,56,44,29,29.12,28.65,9,2,9,0.00
2013-3-4,61.2,44.2,34.5,29.1,24.0,21.2,64,46,27,28.97,28.62,10,2,10,0.00
2013-3-5,44.4,33.9,23.9,27.3,11.3,6.1,69,40,29,29.33,28.97,14,4,14,0.00
2013-3-6,49.8,31.5,16.9,20.1,11.7,6.4,75,46,27,29.39,29.21,8,1,8,0.00
2013-3-7,56.8,39.4,23.7,23.0,17.8,12.3,67,44,25,29.21,29.03,11,2,11,0.00
2013-3-8,64.9,50.9,35.4,38.4,28.3,19.0,54,43,27,29.12,28.88,11,3,11,0.00
2013-3-9,56.7,53.1,48.2,55.6,44.3,29.0,98,77,36,28.88,28.53,13,2,13,1.18
2013-3-10,52.7,36.4,25.9,52.0,32.9,15.0,98,87,63,28.91,28.53,15,2,15,0.08
2013-3-11,43.3,30.8,23.7,18.7,13.5,7.5,67,50,28,28.97,28.85,6,0,8,0.00
2013-3-12,54.0,38.4,28.6,26.1,15.2,7.6,70,41,20,29.33,28.97,13,1,13,0.00
2013-3-13,51.6,34.9,17.8,23.8,12.8,6.8,79,44,19,29.44,29.24,6,0,6,0.00
2013-3-14,35.2,34.6,34.0,16.2,15.4,14.1,47,45,42,29.24,29.18,3,0,3,0.00
2013-3-15,90.3,63.6,34.3,39.1,26.2,14.8,79,34,7,29.00,28.62,8,1,10,0.00
2013-3-16,58.5,43.9,35.2,34.1,25.5,17.8,71,49,33,29.03,28.68,13,4,15,0.00
2013-3-17,46.6,36.2,32.2,30.2,23.8,17.6,81,62,38,29.03,28.74,10,3,11,0.00
2013-3-18,60.4,44.1,33.4,34.1,20.6,4.3,87,47,17,29.03,28.71,9,2,9,0.00
2013-3-19,43.5,34.7,25.2,34.4,19.6,2.1,89,56,30,29.21,29.03,3,0,3,0.20
2013-3-20,48.0,34.3,23.0,34.0,9.5,-1.0,92,38,19,29.39,29.09,11,2,11,0.00
2013-3-21,38.7,31.2,26.6,25.0,11.4,1.5,83,45,31,29.09,28.85,10,2,10,0.00
2013-3-22,38.8,33.1,29.5,29.6,26.3,24.1,88,76,59,28.97,28.88,6,1,6,0.00
2013-3-23,38.7,34.2,30.4,30.9,25.3,17.6,93,71,43,29.00,28.85,8,1,8,0.00
2013-3-24,39.6,30.2,21.9,27.8,18.9,8.9,97,66,36,29.09,28.85,8,0,8,0.04
2013-3-25,41.7,30.2,20.8,21.3,14.8,8.1,69,53,38,29.33,29.06,10,2,10,0.00
2013-3-26,43.9,30.8,16.0,17.2,12.7,9.0,77,49,29,29.39,29.24,6,1,6,0.16
2013-3-27,55.9,40.2,25.3,23.3,18.3,12.8,60,43,26,29.24,29.12,11,2,11,0.00
2013-3-28,70.5,49.5,26.8,33.6,25.2,19.5,84,44,19,29.18,29.06,6,1,8,0.00
2013-3-29,74.7,57.9,41.7,39.9,33.0,25.6,73,43,18,29.15,29.03,9,2,9,0.00
2013-3-30,77.0,61.1,52.2,56.6,42.5,29.2,97,54,30,29.03,28.82,8,1,8,0.20
2013-3-31,70.9,57.1,45.1,42.9,28.7,11.3,77,38,14,28.97,28.91,13,2,13,0.00